createdAt,value
2023-05-10T00:00:32.841Z,11.49
2023-05-10T00:01:34.576Z,11.49
2023-05-10T00:02:36.455Z,11.48
2023-05-10T00:03:38.132Z,11.47
2023-05-10T00:04:39.776Z,11.47
2023-05-10T00:05:41.517Z,11.47
2023-05-10T00:06:43.258Z,11.46
2023-05-10T00:07:44.994Z,11.45
2023-05-10T00:08:46.715Z,11.45
2023-05-10T00:09:48.467Z,11.44
2023-05-10T00:10:50.199Z,11.43
2023-05-10T00:11:51.942Z,11.43
2023-05-10T00:12:53.680Z,11.42
2023-05-10T00:13:55.383Z,11.42
2023-05-10T00:14:57.137Z,11.41
2023-05-10T00:15:58.877Z,11.41
2023-05-10T00:17:00.720Z,11.4
2023-05-10T00:18:02.201Z,11.4
2023-05-10T00:19:03.900Z,11.4
2023-05-10T00:20:05.624Z,11.39
2023-05-10T00:21:07.373Z,11.39
2023-05-10T00:22:09.155Z,11.39
2023-05-10T00:23:10.857Z,11.38
2023-05-10T00:24:12.593Z,11.38
2023-05-10T00:25:14.342Z,11.38
2023-05-10T00:26:16.058Z,11.38
2023-05-10T00:27:17.800Z,11.38
2023-05-10T00:28:19.507Z,11.38
2023-05-10T00:29:21.246Z,11.37
2023-05-10T00:30:23.007Z,11.38
2023-05-10T00:31:24.765Z,11.37
2023-05-10T00:32:26.510Z,11.38
2023-05-10T00:33:28.207Z,11.38
2023-05-10T00:34:29.926Z,11.37
2023-05-10T00:35:31.659Z,11.38
2023-05-10T00:36:33.394Z,11.37
2023-05-10T00:37:35.148Z,11.38
2023-05-10T00:38:36.863Z,11.37
2023-05-10T00:39:38.607Z,11.37
2023-05-10T00:40:40.322Z,11.37
2023-05-10T00:41:42.066Z,11.37
2023-05-10T00:42:43.812Z,11.37
2023-05-10T00:43:45.536Z,11.37
2023-05-10T00:44:47.278Z,11.36
2023-05-10T00:45:49.055Z,11.36
2023-05-10T00:46:50.764Z,11.36
2023-05-10T00:47:52.547Z,11.36
2023-05-10T00:48:54.255Z,11.36
2023-05-10T00:49:56.067Z,11.36
2023-05-10T00:50:57.660Z,11.35
2023-05-10T00:51:59.427Z,11.35
2023-05-10T00:53:01.121Z,11.35
2023-05-10T00:54:02.867Z,11.35
2023-05-10T00:55:04.599Z,11.34
2023-05-10T00:56:06.344Z,11.34
2023-05-10T00:57:08.057Z,11.33
2023-05-10T00:58:09.809Z,11.33
2023-05-10T00:59:11.545Z,11.33
2023-05-10T01:00:13.356Z,11.32
2023-05-10T01:01:15.018Z,11.32
2023-05-10T01:02:16.798Z,11.31
2023-05-10T01:03:18.617Z,11.3
2023-05-10T01:04:20.225Z,11.3
2023-05-10T01:05:22.044Z,11.3
2023-05-10T01:06:23.692Z,11.29
2023-05-10T01:07:25.433Z,11.29
2023-05-10T01:08:27.352Z,11.28
2023-05-10T01:09:28.880Z,11.28
2023-05-10T01:10:30.626Z,11.27
2023-05-10T01:11:32.430Z,11.27
2023-05-10T01:12:34.160Z,11.27
2023-05-10T01:13:35.824Z,11.26
2023-05-10T01:14:37.561Z,11.25
2023-05-10T01:15:39.302Z,11.26
2023-05-10T01:16:41.076Z,11.25
2023-05-10T01:17:42.822Z,11.23
2023-05-10T01:18:44.508Z,11.24
2023-05-10T01:19:46.216Z,11.23
2023-05-10T01:20:47.954Z,11.23
2023-05-10T01:21:49.697Z,11.22
2023-05-10T01:22:51.419Z,11.21
2023-05-10T01:23:53.155Z,11.22
2023-05-10T01:24:54.893Z,11.21
2023-05-10T01:25:56.643Z,11.21
2023-05-10T01:26:58.369Z,11.2
2023-05-10T01:28:00.131Z,11.19
2023-05-10T01:29:01.827Z,11.2
2023-05-10T01:30:14.170Z,11.2
2023-05-10T01:31:05.353Z,11.19
2023-05-10T01:32:07.064Z,11.2
2023-05-10T01:33:08.874Z,11.2
2023-05-10T01:34:10.504Z,11.19
2023-05-10T01:35:12.227Z,11.2
2023-05-10T01:36:13.965Z,11.2
2023-05-10T01:37:15.709Z,11.2
2023-05-10T01:38:17.455Z,11.2
2023-05-10T01:39:19.164Z,11.2
2023-05-10T01:40:20.923Z,11.2
2023-05-10T01:41:22.648Z,11.21
2023-05-10T01:42:24.400Z,11.2
2023-05-10T01:43:26.096Z,11.2
2023-05-10T01:44:27.827Z,11.2
2023-05-10T01:45:29.633Z,11.2
2023-05-10T01:46:31.508Z,11.2
2023-05-10T01:47:33.126Z,11.2
2023-05-10T01:48:34.851Z,11.19
2023-05-10T01:49:36.536Z,11.19
2023-05-10T01:50:38.284Z,11.19
2023-05-10T01:51:39.991Z,11.18
2023-05-10T01:52:41.736Z,11.18
2023-05-10T01:53:43.471Z,11.18
2023-05-10T01:54:45.190Z,11.18
2023-05-10T01:55:46.930Z,11.18
2023-05-10T01:56:48.690Z,11.18
2023-05-10T01:57:50.398Z,11.19
2023-05-10T01:58:52.127Z,11.19
2023-05-10T01:59:53.857Z,11.19
2023-05-10T02:00:55.647Z,11.19
2023-05-10T02:01:57.341Z,11.19
2023-05-10T02:02:59.081Z,11.19
2023-05-10T02:04:00.990Z,11.19
2023-05-10T02:05:02.545Z,11.2
2023-05-10T02:06:04.279Z,11.21
2023-05-10T02:07:06.043Z,11.21
2023-05-10T02:08:07.745Z,11.21
2023-05-10T02:09:09.494Z,11.21
2023-05-10T02:10:11.228Z,11.22
2023-05-10T02:11:12.954Z,11.22
2023-05-10T02:12:15.141Z,11.21
2023-05-10T02:13:16.554Z,11.22
2023-05-10T02:14:18.153Z,11.23
2023-05-10T02:15:19.954Z,11.23
2023-05-10T02:16:21.652Z,11.23
2023-05-10T02:17:23.356Z,11.23
2023-05-10T02:18:25.085Z,11.22
2023-05-10T02:19:26.820Z,11.22
2023-05-10T02:20:28.547Z,11.23
2023-05-10T02:21:30.434Z,11.23
2023-05-10T02:22:32.064Z,11.23
2023-05-10T02:23:33.750Z,11.23
2023-05-10T02:24:35.472Z,11.23
2023-05-10T02:25:37.236Z,11.23
2023-05-10T02:26:38.953Z,11.23
2023-05-10T02:27:40.698Z,11.23
2023-05-10T02:28:45.186Z,11.24
2023-05-10T02:29:46.922Z,11.24
2023-05-10T02:30:48.655Z,11.23
2023-05-10T02:31:50.478Z,11.23
2023-05-10T02:32:52.163Z,11.24
2023-05-10T02:33:53.864Z,11.23
2023-05-10T02:34:55.587Z,11.24
2023-05-10T02:35:57.323Z,11.25
2023-05-10T02:36:59.078Z,11.25
2023-05-10T02:38:00.803Z,11.26
2023-05-10T02:39:02.545Z,11.26
2023-05-10T02:40:04.283Z,11.26
2023-05-10T02:41:06.000Z,11.26
2023-05-10T02:42:07.745Z,11.26
2023-05-10T02:43:09.481Z,11.26
2023-05-10T02:44:11.205Z,11.26
2023-05-10T02:45:13.136Z,11.26
2023-05-10T02:46:14.692Z,11.27
2023-05-10T02:47:16.427Z,11.27
2023-05-10T02:48:18.137Z,11.27
2023-05-10T02:49:19.874Z,11.26
2023-05-10T02:50:21.594Z,11.26
2023-05-10T02:51:23.342Z,11.26
2023-05-10T02:52:25.094Z,11.26
2023-05-10T02:53:26.803Z,11.26
2023-05-10T02:54:28.584Z,11.26
2023-05-10T02:55:30.282Z,11.26
2023-05-10T02:56:32.026Z,11.25
2023-05-10T02:57:33.932Z,11.26
2023-05-10T02:58:35.485Z,11.26
2023-05-10T02:59:37.203Z,11.26
2023-05-10T03:00:38.964Z,11.26
2023-05-10T03:01:40.753Z,11.26
2023-05-10T03:02:42.458Z,11.25
2023-05-10T03:03:44.340Z,11.26
2023-05-10T03:04:45.926Z,11.25
2023-05-10T03:05:47.620Z,11.27
2023-05-10T03:06:49.362Z,11.27
2023-05-10T03:07:51.200Z,11.26
2023-05-10T03:08:52.826Z,11.26
2023-05-10T03:09:54.556Z,11.26
2023-05-10T03:10:56.296Z,11.27
2023-05-10T03:11:58.118Z,11.26
2023-05-10T03:12:59.831Z,11.27
2023-05-10T03:14:01.509Z,11.27
2023-05-10T03:15:03.213Z,11.27
2023-05-10T03:16:04.996Z,11.28
2023-05-10T03:17:06.721Z,11.28
2023-05-10T03:18:08.426Z,11.27
2023-05-10T03:19:10.164Z,11.27
2023-05-10T03:20:11.904Z,11.27
2023-05-10T03:21:13.614Z,11.28
2023-05-10T03:22:15.362Z,11.28
2023-05-10T03:23:17.091Z,11.28
2023-05-10T03:24:18.823Z,11.28
2023-05-10T03:25:20.573Z,11.28
2023-05-10T03:26:22.286Z,11.28
2023-05-10T03:27:24.028Z,11.29
2023-05-10T03:28:25.916Z,11.29
2023-05-10T03:29:27.458Z,11.28
2023-05-10T03:30:29.184Z,11.29
2023-05-10T03:31:30.975Z,11.29
2023-05-10T03:32:32.827Z,11.28
2023-05-10T03:33:34.393Z,11.28
2023-05-10T03:34:36.092Z,11.27
2023-05-10T03:35:37.813Z,11.27
2023-05-10T03:36:39.541Z,11.27
2023-05-10T03:37:41.304Z,11.27
2023-05-10T03:38:42.982Z,11.25
2023-05-10T03:39:44.732Z,11.25
2023-05-10T03:40:46.455Z,11.24
2023-05-10T03:41:48.160Z,11.24
2023-05-10T03:42:49.887Z,11.23
2023-05-10T03:43:51.609Z,11.23
2023-05-10T03:44:53.338Z,11.23
2023-05-10T03:45:55.067Z,11.23
2023-05-10T03:46:56.808Z,11.23
2023-05-10T03:47:58.569Z,11.22
2023-05-10T03:49:00.243Z,11.22
2023-05-10T03:50:01.978Z,11.22
2023-05-10T03:51:03.721Z,11.21
2023-05-10T03:52:05.429Z,11.22
2023-05-10T03:53:07.170Z,11.22
2023-05-10T03:54:09.040Z,11.22
2023-05-10T03:55:10.614Z,11.22
2023-05-10T03:56:12.355Z,11.21
2023-05-10T03:57:14.095Z,11.21
2023-05-10T03:58:15.808Z,11.21
2023-05-10T03:59:17.552Z,11.21
2023-05-10T04:00:19.475Z,11.22
2023-05-10T04:01:21.030Z,11.22
2023-05-10T04:02:22.842Z,11.22
2023-05-10T04:03:24.558Z,11.22
2023-05-10T04:04:26.204Z,11.23
2023-05-10T04:05:27.953Z,11.23
2023-05-10T04:06:29.718Z,11.23
2023-05-10T04:07:31.454Z,11.23
2023-05-10T04:08:33.219Z,11.23
2023-05-10T04:09:35.086Z,11.23
2023-05-10T04:10:36.627Z,11.24
2023-05-10T04:11:38.360Z,11.24
2023-05-10T04:12:40.134Z,11.25
2023-05-10T04:13:41.832Z,11.25
2023-05-10T04:14:43.581Z,11.25
2023-05-10T04:15:45.304Z,11.25
2023-05-10T04:16:47.027Z,11.26
2023-05-10T04:17:48.794Z,11.26
2023-05-10T04:18:50.484Z,11.25
2023-05-10T04:19:52.231Z,11.25
2023-05-10T04:20:53.976Z,11.26
2023-05-10T04:21:55.721Z,11.26
2023-05-10T04:22:57.453Z,11.27
2023-05-10T04:23:59.188Z,11.26
2023-05-10T04:25:00.920Z,11.26
2023-05-10T04:26:02.647Z,11.26
2023-05-10T04:27:04.375Z,11.26
2023-05-10T04:28:06.089Z,11.26
2023-05-10T04:29:07.846Z,11.25
2023-05-10T04:30:09.576Z,11.26
2023-05-10T04:31:11.313Z,11.26
2023-05-10T04:32:13.060Z,11.25
2023-05-10T04:33:14.763Z,11.25
2023-05-10T04:34:16.602Z,11.25
2023-05-10T04:35:18.335Z,11.26
2023-05-10T04:36:19.980Z,11.25
2023-05-10T04:37:20.795Z,11.25
2023-05-10T04:38:50.057Z,11.24
2023-05-10T04:41:59.248Z,11.23
2023-05-10T04:43:00.965Z,11.23
2023-05-10T04:44:02.695Z,11.23
2023-05-10T04:45:04.429Z,11.23
2023-05-10T04:46:06.284Z,11.23
2023-05-10T04:47:09.392Z,11.22
2023-05-10T04:48:09.646Z,11.22
2023-05-10T04:49:11.394Z,11.21
2023-05-10T04:50:13.110Z,11.2
2023-05-10T04:51:14.828Z,11.2
2023-05-10T04:52:16.606Z,11.2
2023-05-10T04:53:18.318Z,11.19
2023-05-10T04:54:20.028Z,11.18
2023-05-10T04:55:21.776Z,11.18
2023-05-10T04:56:23.504Z,11.17
2023-05-10T04:57:25.263Z,11.17
2023-05-10T04:58:26.974Z,11.16
2023-05-10T04:59:28.694Z,11.15
2023-05-10T05:00:30.473Z,11.15
2023-05-10T05:01:32.274Z,11.14
2023-05-10T05:02:34.178Z,11.13
2023-05-10T05:03:35.749Z,11.12
2023-05-10T05:04:37.444Z,11.12
2023-05-10T05:05:39.141Z,11.12
2023-05-10T05:06:40.846Z,11.11
2023-05-10T05:07:42.589Z,11.11
2023-05-10T05:08:44.323Z,11.1
2023-05-10T05:09:46.059Z,11.1
2023-05-10T05:10:47.784Z,11.1
2023-05-10T05:11:49.534Z,11.09
2023-05-10T05:12:51.288Z,11.08
2023-05-10T05:13:53.108Z,11.07
2023-05-10T05:14:54.710Z,11.06
2023-05-10T05:15:56.510Z,11.07
2023-05-10T05:16:58.191Z,11.08
2023-05-10T05:17:59.988Z,11.09
2023-05-10T05:19:01.710Z,11.1
2023-05-10T05:20:03.395Z,11.12
2023-05-10T05:21:05.127Z,11.12
2023-05-10T05:22:06.868Z,11.14
2023-05-10T05:23:08.586Z,11.18
2023-05-10T05:24:10.354Z,11.23
2023-05-10T05:25:12.098Z,11.31
2023-05-10T05:26:13.793Z,11.37
2023-05-10T05:27:15.547Z,11.45
2023-05-10T05:28:17.264Z,11.51
2023-05-10T05:29:18.991Z,11.56
2023-05-10T05:30:20.738Z,11.59
2023-05-10T05:31:22.532Z,11.63
2023-05-10T05:32:24.420Z,11.65
2023-05-10T05:33:25.969Z,11.68
2023-05-10T05:34:27.678Z,11.73
2023-05-10T05:35:29.423Z,11.78
2023-05-10T05:36:31.141Z,11.84
2023-05-10T05:37:32.905Z,11.91
2023-05-10T05:38:34.622Z,11.99
2023-05-10T05:39:36.352Z,12.04
2023-05-10T05:40:38.089Z,12.12
2023-05-10T05:41:39.805Z,12.19
2023-05-10T05:42:41.559Z,12.21
2023-05-10T05:43:43.296Z,12.25
2023-05-10T05:44:45.028Z,12.3
2023-05-10T05:45:46.808Z,12.33
2023-05-10T05:46:48.480Z,12.36
2023-05-10T05:47:50.258Z,12.4
2023-05-10T05:48:51.970Z,12.41
2023-05-10T05:49:53.701Z,12.46
2023-05-10T05:50:55.433Z,12.49
2023-05-10T05:51:57.152Z,12.53
2023-05-10T05:52:58.897Z,12.55
2023-05-10T05:54:00.701Z,12.52
2023-05-10T05:55:02.360Z,12.5
2023-05-10T05:56:04.247Z,12.44
2023-05-10T05:57:05.854Z,12.38
2023-05-10T05:58:07.556Z,12.34
2023-05-10T05:59:09.303Z,12.33
2023-05-10T06:00:11.032Z,12.33
2023-05-10T06:01:12.765Z,12.3
2023-05-10T06:02:14.634Z,12.28
2023-05-10T06:03:16.383Z,12.27
2023-05-10T06:04:18.031Z,12.27
2023-05-10T06:05:19.710Z,12.3
2023-05-10T06:06:21.462Z,12.34
2023-05-10T06:07:23.207Z,12.39
2023-05-10T06:08:24.918Z,12.46
2023-05-10T06:09:26.658Z,12.53
2023-05-10T06:10:28.440Z,12.57
2023-05-10T06:11:30.131Z,12.62
2023-05-10T06:12:31.875Z,12.67
2023-05-10T06:13:33.936Z,12.71
2023-05-10T06:14:35.336Z,12.73
2023-05-10T06:15:37.056Z,12.76
2023-05-10T06:16:38.818Z,12.77
2023-05-10T06:17:40.573Z,12.78
2023-05-10T06:18:42.284Z,12.81
2023-05-10T06:19:44.000Z,12.79
2023-05-10T06:20:45.734Z,12.83
2023-05-10T06:21:47.460Z,12.85
2023-05-10T06:22:49.194Z,12.9
2023-05-10T06:23:50.949Z,12.87
2023-05-10T06:24:52.690Z,12.88
2023-05-10T06:25:54.424Z,12.91
2023-05-10T06:26:56.134Z,12.93
2023-05-10T06:27:57.910Z,12.97
2023-05-10T06:28:59.590Z,13.03
2023-05-10T06:30:12.306Z,13.08
2023-05-10T06:31:03.107Z,13.13
2023-05-10T06:32:04.805Z,13.18
2023-05-10T06:33:06.636Z,13.24
2023-05-10T06:34:08.293Z,13.23
2023-05-10T06:35:10.028Z,13.28
2023-05-10T06:36:11.751Z,13.29
2023-05-10T06:37:13.498Z,13.32
2023-05-10T06:38:15.243Z,13.33
2023-05-10T06:39:16.979Z,13.34
2023-05-10T06:40:18.703Z,13.36
2023-05-10T06:41:21.232Z,13.37
2023-05-10T06:42:22.146Z,13.41
2023-05-10T06:43:23.904Z,13.44
2023-05-10T06:44:25.713Z,13.44
2023-05-10T06:45:27.353Z,13.47
2023-05-10T06:46:29.183Z,13.48
2023-05-10T06:47:30.884Z,13.48
2023-05-10T06:48:32.567Z,13.5
2023-05-10T06:49:34.308Z,13.47
2023-05-10T06:50:36.043Z,13.5
2023-05-10T06:51:37.748Z,13.51
2023-05-10T06:52:39.499Z,13.51
2023-05-10T06:53:41.218Z,13.5
2023-05-10T06:54:42.985Z,13.51
2023-05-10T06:55:44.806Z,13.47
2023-05-10T06:56:46.428Z,13.4
2023-05-10T06:57:48.181Z,13.39
2023-05-10T06:58:49.911Z,13.38
2023-05-10T06:59:51.642Z,13.41
2023-05-10T07:00:53.594Z,13.41
2023-05-10T07:01:55.219Z,13.41
2023-05-10T07:02:56.891Z,13.39
2023-05-10T07:03:58.591Z,13.41
2023-05-10T07:05:14.840Z,13.42
2023-05-10T07:06:02.040Z,13.41
2023-05-10T07:07:03.772Z,13.4
2023-05-10T07:08:05.519Z,13.42
2023-05-10T07:09:07.256Z,13.38
2023-05-10T07:10:08.980Z,13.37
2023-05-10T07:11:10.722Z,13.36
2023-05-10T07:12:14.696Z,13.35
2023-05-10T07:13:14.283Z,13.34
2023-05-10T07:14:15.900Z,13.31
2023-05-10T07:15:18.065Z,13.29
2023-05-10T07:16:19.428Z,13.31
2023-05-10T07:17:21.240Z,13.3
2023-05-10T07:18:22.877Z,13.31
2023-05-10T07:19:24.596Z,13.27
2023-05-10T07:20:26.330Z,13.29
2023-05-10T07:21:28.068Z,13.27
2023-05-10T07:22:29.816Z,13.25
2023-05-10T07:23:31.538Z,13.23
2023-05-10T07:24:33.278Z,13.21
2023-05-10T07:25:34.998Z,13.19
2023-05-10T07:26:36.735Z,13.17
2023-05-10T07:27:38.477Z,13.14
2023-05-10T07:28:40.208Z,13.12
2023-05-10T07:29:41.957Z,13.11
2023-05-10T07:30:43.775Z,13.1
2023-05-10T07:31:45.400Z,13.09
2023-05-10T07:32:47.202Z,13.07
2023-05-10T07:33:48.867Z,13.08
2023-05-10T07:34:50.611Z,13.08
2023-05-10T07:35:52.331Z,13.09
2023-05-10T07:36:54.084Z,13.08
2023-05-10T07:37:55.816Z,13.05
2023-05-10T07:38:57.541Z,13.05
2023-05-10T07:39:59.286Z,13.05
2023-05-10T07:41:01.127Z,13.04
2023-05-10T07:42:02.732Z,13.05
2023-05-10T07:43:04.463Z,13.04
2023-05-10T07:44:06.216Z,13.04
2023-05-10T07:45:07.948Z,13.04
2023-05-10T07:46:09.711Z,13.03
2023-05-10T07:47:11.604Z,13.02
2023-05-10T07:48:13.135Z,13.01
2023-05-10T07:49:14.870Z,13
2023-05-10T07:50:16.627Z,13
2023-05-10T07:51:18.333Z,13
2023-05-10T07:52:22.411Z,12.98
2023-05-10T07:53:21.812Z,12.97
2023-05-10T07:54:23.555Z,12.98
2023-05-10T07:55:25.350Z,12.99
2023-05-10T07:56:27.010Z,13
2023-05-10T07:57:28.758Z,13.02
2023-05-10T07:58:30.465Z,13.04
2023-05-10T07:59:32.242Z,13.07
2023-05-10T08:00:33.919Z,13.12
2023-05-10T08:01:35.673Z,13.17
2023-05-10T08:02:37.574Z,13.22
2023-05-10T08:03:39.283Z,13.24
2023-05-10T08:04:40.952Z,13.27
2023-05-10T08:05:42.637Z,13.31
2023-05-10T08:06:44.354Z,13.35
2023-05-10T08:07:46.093Z,13.39
2023-05-10T08:08:47.797Z,13.44
2023-05-10T08:09:49.550Z,13.49
2023-05-10T08:10:51.280Z,13.52
2023-05-10T08:11:53.028Z,13.56
2023-05-10T08:12:54.733Z,13.6
2023-05-10T08:13:56.476Z,13.63
2023-05-10T08:14:58.232Z,13.65
2023-05-10T08:16:00.109Z,13.67
2023-05-10T08:17:01.698Z,13.72
2023-05-10T08:18:03.442Z,13.76
2023-05-10T08:19:05.278Z,13.77
2023-05-10T08:20:06.926Z,13.79
2023-05-10T08:21:08.617Z,13.82
2023-05-10T08:22:10.379Z,13.83
2023-05-10T08:23:12.152Z,13.86
2023-05-10T08:24:13.843Z,13.86
2023-05-10T08:25:15.945Z,13.84
2023-05-10T08:26:17.302Z,13.83
2023-05-10T08:27:19.050Z,13.81
2023-05-10T08:28:20.828Z,13.81
2023-05-10T08:29:22.513Z,13.77
2023-05-10T08:30:24.287Z,13.75
2023-05-10T08:31:25.996Z,13.7
2023-05-10T08:32:27.721Z,13.65
2023-05-10T08:33:29.424Z,13.57
2023-05-10T08:34:31.179Z,13.52
2023-05-10T08:35:32.912Z,13.47
2023-05-10T08:36:34.630Z,13.43
2023-05-10T08:37:36.367Z,13.41
2023-05-10T08:38:38.118Z,13.38
2023-05-10T08:39:39.867Z,13.35
2023-05-10T08:40:41.571Z,13.33
2023-05-10T08:41:43.303Z,13.34
2023-05-10T08:42:45.060Z,13.35
2023-05-10T08:43:46.775Z,13.35
2023-05-10T08:44:49.495Z,13.36
2023-05-10T08:45:50.259Z,13.35
2023-05-10T08:46:52.055Z,13.35
2023-05-10T08:47:53.795Z,13.34
2023-05-10T08:48:55.453Z,13.32
2023-05-10T08:49:57.179Z,13.34
2023-05-10T08:50:58.921Z,13.32
2023-05-10T08:52:00.676Z,13.33
2023-05-10T08:53:02.387Z,13.35
2023-05-10T08:54:04.132Z,13.37
2023-05-10T08:55:05.867Z,13.41
2023-05-10T08:56:07.638Z,13.43
2023-05-10T08:57:09.356Z,13.48
2023-05-10T08:58:11.079Z,13.48
2023-05-10T08:59:12.835Z,13.54
2023-05-10T09:00:14.526Z,13.59
2023-05-10T09:01:16.273Z,13.66
2023-05-10T09:02:18.850Z,13.75
2023-05-10T09:03:19.800Z,13.82
2023-05-10T09:04:21.509Z,13.89
2023-05-10T09:05:23.241Z,13.95
2023-05-10T09:06:24.946Z,14.03
2023-05-10T09:07:26.668Z,14.1
2023-05-10T09:08:28.419Z,14.13
2023-05-10T09:09:30.138Z,14.16
2023-05-10T09:10:32.032Z,14.2
2023-05-10T09:11:33.596Z,14.24
2023-05-10T09:12:35.344Z,14.31
2023-05-10T09:13:37.071Z,14.37
2023-05-10T09:14:38.811Z,14.45
2023-05-10T09:15:40.555Z,14.53
2023-05-10T09:16:42.452Z,14.61
2023-05-10T09:17:44.136Z,14.72
2023-05-10T09:18:45.748Z,14.82
2023-05-10T09:19:47.490Z,14.94
2023-05-10T09:20:49.248Z,15.03
2023-05-10T09:21:50.951Z,15.12
2023-05-10T09:22:52.671Z,15.18
2023-05-10T09:23:54.428Z,15.23
2023-05-10T09:24:56.149Z,15.24
2023-05-10T09:25:57.869Z,15.28
2023-05-10T09:26:59.620Z,15.34
2023-05-10T09:28:01.361Z,15.39
2023-05-10T09:29:03.081Z,15.42
2023-05-10T09:30:05.055Z,15.43
2023-05-10T09:31:06.596Z,15.42
2023-05-10T09:32:08.284Z,15.44
2023-05-10T09:33:10.229Z,15.43
2023-05-10T09:34:11.751Z,15.44
2023-05-10T09:35:13.509Z,15.39
2023-05-10T09:36:15.227Z,15.35
2023-05-10T09:37:16.973Z,15.31
2023-05-10T09:38:18.694Z,15.27
2023-05-10T09:39:20.413Z,15.22
2023-05-10T09:40:22.183Z,15.2
2023-05-10T09:41:23.992Z,15.19
2023-05-10T09:42:25.655Z,15.16
2023-05-10T09:43:27.347Z,15.15
2023-05-10T09:44:29.091Z,15.12
2023-05-10T09:45:30.832Z,15.09
2023-05-10T09:46:32.653Z,15.09
2023-05-10T09:47:34.537Z,15.05
2023-05-10T09:48:36.095Z,15.03
2023-05-10T09:49:37.778Z,15
2023-05-10T09:50:39.485Z,15.01
2023-05-10T09:51:41.241Z,15.02
2023-05-10T09:52:42.977Z,15.01
2023-05-10T09:53:44.700Z,15.04
2023-05-10T09:54:46.443Z,15.05
2023-05-10T09:55:48.170Z,15.05
2023-05-10T09:56:49.996Z,15.07
2023-05-10T09:57:51.675Z,15.08
2023-05-10T09:58:53.387Z,15.07
2023-05-10T09:59:55.105Z,15.07
2023-05-10T10:00:56.848Z,15.05
2023-05-10T10:01:58.640Z,15.03
2023-05-10T10:03:00.436Z,15.01
2023-05-10T10:04:02.042Z,14.99
2023-05-10T10:05:03.876Z,14.97
2023-05-10T10:06:05.974Z,14.94
2023-05-10T10:07:07.231Z,14.93
2023-05-10T10:08:09.131Z,14.9
2023-05-10T10:09:10.712Z,14.89
2023-05-10T10:10:12.501Z,14.87
2023-05-10T10:11:14.174Z,14.86
2023-05-10T10:12:15.893Z,14.85
2023-05-10T10:13:17.648Z,14.84
2023-05-10T10:14:19.373Z,14.83
2023-05-10T10:15:21.424Z,14.8
2023-05-10T10:16:22.923Z,14.78
2023-05-10T10:17:24.645Z,14.77
2023-05-10T10:18:26.314Z,14.76
2023-05-10T10:19:28.046Z,14.72
2023-05-10T10:20:29.795Z,14.72
2023-05-10T10:21:31.509Z,14.72
2023-05-10T10:22:33.261Z,14.71
2023-05-10T10:23:34.995Z,14.71
2023-05-10T10:24:36.717Z,14.71
2023-05-10T10:25:38.464Z,14.69
2023-05-10T10:26:40.235Z,14.69
2023-05-10T10:27:42.284Z,14.69
2023-05-10T10:28:43.655Z,14.67
2023-05-10T10:29:45.396Z,14.63
2023-05-10T10:30:47.159Z,14.63
2023-05-10T10:31:48.952Z,14.62
2023-05-10T10:32:50.603Z,14.62
2023-05-10T10:33:52.349Z,14.62
2023-05-10T10:34:54.159Z,14.64
2023-05-10T10:35:55.800Z,14.65
2023-05-10T10:36:57.548Z,14.67
2023-05-10T10:37:59.277Z,14.68
2023-05-10T10:39:01.041Z,14.7
2023-05-10T10:40:02.737Z,14.72
2023-05-10T10:41:04.473Z,14.75
2023-05-10T10:42:06.316Z,14.75
2023-05-10T10:43:07.944Z,14.78
2023-05-10T10:44:09.694Z,14.79
2023-05-10T10:45:11.418Z,14.81
2023-05-10T10:46:13.186Z,14.84
2023-05-10T10:47:14.901Z,14.85
2023-05-10T10:48:16.615Z,14.87
2023-05-10T10:49:18.356Z,14.88
2023-05-10T10:50:20.077Z,14.87
2023-05-10T10:51:21.958Z,14.87
2023-05-10T10:52:23.529Z,14.87
2023-05-10T10:53:25.479Z,14.87
2023-05-10T10:54:27.022Z,14.87
2023-05-10T10:55:28.733Z,14.89
2023-05-10T10:56:30.494Z,14.92
2023-05-10T10:57:32.237Z,14.94
2023-05-10T10:58:33.944Z,14.97
2023-05-10T10:59:35.692Z,15.01
2023-05-10T11:00:37.530Z,15.06
2023-05-10T11:01:39.213Z,15.11
2023-05-10T11:02:40.901Z,15.17
2023-05-10T11:03:42.607Z,15.22
2023-05-10T11:04:44.909Z,15.29
2023-05-10T11:05:46.084Z,15.36
2023-05-10T11:06:47.824Z,15.45
2023-05-10T11:07:49.553Z,15.52
2023-05-10T11:08:51.286Z,15.61
2023-05-10T11:09:53.012Z,15.7
2023-05-10T11:10:54.772Z,15.8
2023-05-10T11:11:56.633Z,15.88
2023-05-10T11:12:58.244Z,15.96
2023-05-10T11:13:59.955Z,16.04
2023-05-10T11:15:01.689Z,16.13
2023-05-10T11:16:03.422Z,16.23
2023-05-10T11:17:05.201Z,16.31
2023-05-10T11:18:06.929Z,16.39
2023-05-10T11:19:08.689Z,16.48
2023-05-10T11:20:10.356Z,16.57
2023-05-10T11:21:12.109Z,16.67
2023-05-10T11:22:13.834Z,16.76
2023-05-10T11:23:15.567Z,16.85
2023-05-10T11:24:17.297Z,16.91
2023-05-10T11:25:19.033Z,17.01
2023-05-10T11:26:20.763Z,17.11
2023-05-10T11:27:22.526Z,17.2
2023-05-10T11:28:24.232Z,17.31
2023-05-10T11:29:25.963Z,17.4
2023-05-10T11:30:27.686Z,17.49
2023-05-10T11:31:29.671Z,17.51
2023-05-10T11:32:31.232Z,17.54
2023-05-10T11:33:32.900Z,17.59
2023-05-10T11:34:34.946Z,17.61
2023-05-10T11:35:36.352Z,17.6
2023-05-10T11:36:38.166Z,17.61
2023-05-10T11:37:39.886Z,17.6
2023-05-10T11:38:41.559Z,17.58
2023-05-10T11:39:43.302Z,17.54
2023-05-10T11:40:45.042Z,17.52
2023-05-10T11:41:46.765Z,17.52
2023-05-10T11:42:48.549Z,17.49
2023-05-10T11:43:50.328Z,17.46
2023-05-10T11:44:52.074Z,17.46
2023-05-10T11:45:53.899Z,17.44
2023-05-10T11:46:55.537Z,17.43
2023-05-10T11:47:57.453Z,17.41
2023-05-10T11:48:58.997Z,17.4
2023-05-10T11:50:00.756Z,17.39
2023-05-10T11:51:02.477Z,17.33
2023-05-10T11:52:04.203Z,17.34
2023-05-10T11:53:06.118Z,17.28
2023-05-10T11:54:07.685Z,17.22
2023-05-10T11:55:09.420Z,17.18
2023-05-10T11:56:11.157Z,17.12
2023-05-10T11:57:12.899Z,17.05
2023-05-10T11:58:14.592Z,17.02
2023-05-10T11:59:16.329Z,16.96
2023-05-10T12:00:18.443Z,16.89
2023-05-10T12:01:19.813Z,16.84
2023-05-10T12:02:21.638Z,16.82
2023-05-10T12:03:23.612Z,16.75
2023-05-10T12:04:25.546Z,16.69
2023-05-10T12:05:26.745Z,16.62
2023-05-10T12:06:28.500Z,16.56
2023-05-10T12:07:30.226Z,16.51
2023-05-10T12:08:32.003Z,16.44
2023-05-10T12:09:43.156Z,16.38
2023-05-10T12:10:35.397Z,16.28
2023-05-10T12:11:37.192Z,16.23
2023-05-10T12:12:38.900Z,16.15
2023-05-10T12:13:40.619Z,16.09
2023-05-10T12:14:42.361Z,16.03
2023-05-10T12:15:44.090Z,15.96
2023-05-10T12:16:46.099Z,15.92
2023-05-10T12:17:47.594Z,15.86
2023-05-10T12:18:49.363Z,15.81
2023-05-10T12:19:51.041Z,15.77
2023-05-10T12:20:52.773Z,15.73
2023-05-10T12:21:54.476Z,15.68
2023-05-10T12:22:57.282Z,15.64
2023-05-10T12:23:57.954Z,15.62
2023-05-10T12:24:59.695Z,15.59
2023-05-10T12:26:01.434Z,15.57
2023-05-10T12:27:03.183Z,15.56
2023-05-10T12:28:04.890Z,15.56
2023-05-10T12:29:06.628Z,15.59
2023-05-10T12:30:08.359Z,15.59
2023-05-10T12:31:10.131Z,15.6
2023-05-10T12:32:11.969Z,15.59
2023-05-10T12:33:13.670Z,15.6
2023-05-10T12:34:15.319Z,15.61
2023-05-10T12:35:17.026Z,15.64
2023-05-10T12:36:18.794Z,15.65
2023-05-10T12:37:20.511Z,15.66
2023-05-10T12:38:22.237Z,15.68
2023-05-10T12:39:23.987Z,15.7
2023-05-10T12:40:25.706Z,15.72
2023-05-10T12:41:27.442Z,15.75
2023-05-10T12:42:29.190Z,15.78
2023-05-10T12:43:30.906Z,15.83
2023-05-10T12:44:32.643Z,15.87
2023-05-10T12:45:34.403Z,15.94
2023-05-10T12:46:36.113Z,16.01
2023-05-10T12:47:37.929Z,16.06
2023-05-10T12:48:39.594Z,16.12
2023-05-10T12:49:41.318Z,16.17
2023-05-10T12:50:43.063Z,16.21
2023-05-10T12:51:44.787Z,16.24
2023-05-10T12:52:46.531Z,16.26
2023-05-10T12:53:49.698Z,16.26
2023-05-10T12:54:49.981Z,16.25
2023-05-10T12:55:51.806Z,16.26
2023-05-10T12:56:53.464Z,16.31
2023-05-10T12:57:55.201Z,16.39
2023-05-10T12:58:56.927Z,16.44
2023-05-10T12:59:58.669Z,16.49
2023-05-10T13:01:00.821Z,16.56
2023-05-10T13:02:02.145Z,16.67
2023-05-10T13:03:03.859Z,16.81
2023-05-10T13:04:05.738Z,16.97
2023-05-10T13:05:07.366Z,17.13
2023-05-10T13:06:09.064Z,17.28
2023-05-10T13:07:10.795Z,17.46
2023-05-10T13:08:12.522Z,17.63
2023-05-10T13:09:14.264Z,17.77
2023-05-10T13:10:16.166Z,17.83
2023-05-10T13:11:17.730Z,17.93
2023-05-10T13:12:19.452Z,18
2023-05-10T13:13:21.188Z,18.04
2023-05-10T13:14:22.916Z,18.08
2023-05-10T13:15:24.668Z,18.09
2023-05-10T13:16:26.399Z,18.08
2023-05-10T13:17:28.343Z,18.09
2023-05-10T13:18:29.910Z,18.1
2023-05-10T13:19:31.603Z,18.09
2023-05-10T13:20:33.319Z,18.12